sensor_id;sensor_type;location;lat;lon;timestamp;P1;durP1;ratioP1;P2;durP2;ratioP2
15114;SDS011;7658;51.456;7.622;2023-06-26T00:00:40;12.48;;;8.50;;
15114;SDS011;7658;51.456;7.622;2023-06-26T00:03:06;13.43;;;8.50;;
15114;SDS011;7658;51.456;7.622;2023-06-26T00:05:32;12.70;;;8.55;;
15114;SDS011;7658;51.456;7.622;2023-06-26T00:07:59;10.02;;;8.02;;
15114;SDS011;7658;51.456;7.622;2023-06-26T00:10:26;12.00;;;8.63;;
15114;SDS011;7658;51.456;7.622;2023-06-26T00:12:52;12.87;;;8.87;;
15114;SDS011;7658;51.456;7.622;2023-06-26T00:15:18;15.27;;;9.25;;
15114;SDS011;7658;51.456;7.622;2023-06-26T00:17:44;12.02;;;8.55;;
15114;SDS011;7658;51.456;7.622;2023-06-26T00:20:10;13.93;;;7.88;;
15114;SDS011;7658;51.456;7.622;2023-06-26T00:22:36;12.30;;;7.45;;
15114;SDS011;7658;51.456;7.622;2023-06-26T00:25:05;13.77;;;7.97;;
15114;SDS011;7658;51.456;7.622;2023-06-26T00:27:32;11.35;;;8.07;;
15114;SDS011;7658;51.456;7.622;2023-06-26T00:29:58;10.13;;;8.10;;
15114;SDS011;7658;51.456;7.622;2023-06-26T00:32:23;9.90;;;7.95;;
15114;SDS011;7658;51.456;7.622;2023-06-26T00:34:49;9.82;;;7.75;;
15114;SDS011;7658;51.456;7.622;2023-06-26T00:37:15;9.13;;;7.80;;
15114;SDS011;7658;51.456;7.622;2023-06-26T00:39:41;11.23;;;7.88;;
15114;SDS011;7658;51.456;7.622;2023-06-26T00:42:06;9.00;;;7.70;;
15114;SDS011;7658;51.456;7.622;2023-06-26T00:44:32;9.95;;;7.68;;
15114;SDS011;7658;51.456;7.622;2023-06-26T00:46:58;9.50;;;7.63;;
15114;SDS011;7658;51.456;7.622;2023-06-26T00:49:25;11.93;;;7.85;;
15114;SDS011;7658;51.456;7.622;2023-06-26T00:51:52;11.27;;;8.38;;
15114;SDS011;7658;51.456;7.622;2023-06-26T00:54:19;11.95;;;7.70;;
15114;SDS011;7658;51.456;7.622;2023-06-26T00:56:47;11.30;;;7.70;;
15114;SDS011;7658;51.456;7.622;2023-06-26T00:59:13;11.05;;;8.35;;
15114;SDS011;7658;51.456;7.622;2023-06-26T01:01:39;10.88;;;8.02;;
15114;SDS011;7658;51.456;7.622;2023-06-26T01:04:05;10.32;;;7.55;;
15114;SDS011;7658;51.456;7.622;2023-06-26T01:06:31;13.20;;;8.27;;
15114;SDS011;7658;51.456;7.622;2023-06-26T01:09:02;10.02;;;8.00;;
15114;SDS011;7658;51.456;7.622;2023-06-26T01:11:28;11.15;;;7.63;;
15114;SDS011;7658;51.456;7.622;2023-06-26T01:13:54;11.48;;;8.73;;
15114;SDS011;7658;51.456;7.622;2023-06-26T01:16:21;10.50;;;7.35;;
15114;SDS011;7658;51.456;7.622;2023-06-26T01:18:51;9.85;;;8.27;;
15114;SDS011;7658;51.456;7.622;2023-06-26T01:21:18;8.32;;;7.30;;
15114;SDS011;7658;51.456;7.622;2023-06-26T01:26:35;9.98;;;8.10;;
15114;SDS011;7658;51.456;7.622;2023-06-26T01:29:06;11.00;;;7.45;;
15114;SDS011;7658;51.456;7.622;2023-06-26T01:31:34;9.02;;;7.25;;
15114;SDS011;7658;51.456;7.622;2023-06-26T01:34:00;12.65;;;7.55;;
15114;SDS011;7658;51.456;7.622;2023-06-26T01:36:27;11.18;;;7.82;;
15114;SDS011;7658;51.456;7.622;2023-06-26T01:38:53;10.98;;;8.18;;
15114;SDS011;7658;51.456;7.622;2023-06-26T01:41:19;12.60;;;8.57;;
15114;SDS011;7658;51.456;7.622;2023-06-26T01:44:01;16.10;;;8.63;;
15114;SDS011;7658;51.456;7.622;2023-06-26T01:52:19;12.55;;;8.05;;
15114;SDS011;7658;51.456;7.622;2023-06-26T01:55:09;16.15;;;8.40;;
15114;SDS011;7658;51.456;7.622;2023-06-26T01:57:36;14.48;;;8.60;;
15114;SDS011;7658;51.456;7.622;2023-06-26T02:00:03;17.73;;;8.85;;
15114;SDS011;7658;51.456;7.622;2023-06-26T02:02:31;12.73;;;7.95;;
15114;SDS011;7658;51.456;7.622;2023-06-26T02:04:57;13.57;;;7.80;;
15114;SDS011;7658;51.456;7.622;2023-06-26T02:07:22;13.23;;;7.78;;
15114;SDS011;7658;51.456;7.622;2023-06-26T02:09:48;15.82;;;7.35;;
15114;SDS011;7658;51.456;7.622;2023-06-26T02:12:14;10.52;;;7.75;;
15114;SDS011;7658;51.456;7.622;2023-06-26T02:14:39;12.25;;;7.97;;
15114;SDS011;7658;51.456;7.622;2023-06-26T02:17:05;11.27;;;7.47;;
15114;SDS011;7658;51.456;7.622;2023-06-26T02:19:31;9.43;;;7.78;;
15114;SDS011;7658;51.456;7.622;2023-06-26T02:21:57;12.48;;;8.07;;
15114;SDS011;7658;51.456;7.622;2023-06-26T02:24:23;15.00;;;8.85;;
15114;SDS011;7658;51.456;7.622;2023-06-26T02:26:49;13.25;;;8.48;;
15114;SDS011;7658;51.456;7.622;2023-06-26T02:29:14;12.93;;;8.32;;
15114;SDS011;7658;51.456;7.622;2023-06-26T02:31:40;19.55;;;8.55;;
15114;SDS011;7658;51.456;7.622;2023-06-26T02:34:06;20.60;;;8.95;;
15114;SDS011;7658;51.456;7.622;2023-06-26T02:36:32;16.25;;;8.00;;
15114;SDS011;7658;51.456;7.622;2023-06-26T02:38:58;15.32;;;9.02;;
15114;SDS011;7658;51.456;7.622;2023-06-26T02:41:23;14.93;;;8.90;;
15114;SDS011;7658;51.456;7.622;2023-06-26T02:43:49;13.82;;;9.32;;
15114;SDS011;7658;51.456;7.622;2023-06-26T02:46:15;16.20;;;8.70;;
15114;SDS011;7658;51.456;7.622;2023-06-26T02:48:41;13.50;;;8.45;;
15114;SDS011;7658;51.456;7.622;2023-06-26T02:51:07;19.25;;;10.02;;
15114;SDS011;7658;51.456;7.622;2023-06-26T02:53:33;21.95;;;8.60;;
15114;SDS011;7658;51.456;7.622;2023-06-26T02:55:59;13.75;;;9.15;;
15114;SDS011;7658;51.456;7.622;2023-06-26T02:58:25;15.23;;;8.57;;
15114;SDS011;7658;51.456;7.622;2023-06-26T03:00:50;14.25;;;8.50;;
15114;SDS011;7658;51.456;7.622;2023-06-26T03:03:17;15.30;;;8.30;;
15114;SDS011;7658;51.456;7.622;2023-06-26T03:05:42;11.40;;;7.55;;
15114;SDS011;7658;51.456;7.622;2023-06-26T03:08:08;13.75;;;7.43;;
15114;SDS011;7658;51.456;7.622;2023-06-26T03:10:34;17.25;;;7.82;;
15114;SDS011;7658;51.456;7.622;2023-06-26T03:13:00;13.35;;;8.30;;
15114;SDS011;7658;51.456;7.622;2023-06-26T03:15:26;12.60;;;8.25;;
15114;SDS011;7658;51.456;7.622;2023-06-26T03:17:51;10.55;;;7.90;;
15114;SDS011;7658;51.456;7.622;2023-06-26T03:20:17;11.57;;;7.88;;
15114;SDS011;7658;51.456;7.622;2023-06-26T03:22:43;10.05;;;8.20;;
15114;SDS011;7658;51.456;7.622;2023-06-26T03:25:09;14.07;;;7.97;;
15114;SDS011;7658;51.456;7.622;2023-06-26T03:27:34;16.73;;;7.88;;
15114;SDS011;7658;51.456;7.622;2023-06-26T03:30:00;12.93;;;8.00;;
15114;SDS011;7658;51.456;7.622;2023-06-26T03:32:26;10.18;;;7.75;;
15114;SDS011;7658;51.456;7.622;2023-06-26T03:34:52;14.20;;;7.90;;
15114;SDS011;7658;51.456;7.622;2023-06-26T03:37:18;14.60;;;7.80;;
15114;SDS011;7658;51.456;7.622;2023-06-26T03:39:44;11.13;;;7.55;;
15114;SDS011;7658;51.456;7.622;2023-06-26T03:42:09;11.95;;;7.97;;
15114;SDS011;7658;51.456;7.622;2023-06-26T03:44:35;12.55;;;8.13;;
15114;SDS011;7658;51.456;7.622;2023-06-26T03:47:01;12.75;;;8.18;;
15114;SDS011;7658;51.456;7.622;2023-06-26T03:49:27;10.77;;;8.18;;
15114;SDS011;7658;51.456;7.622;2023-06-26T03:51:53;11.88;;;7.68;;
15114;SDS011;7658;51.456;7.622;2023-06-26T03:54:20;12.88;;;8.05;;
15114;SDS011;7658;51.456;7.622;2023-06-26T03:56:46;13.27;;;8.00;;
15114;SDS011;7658;51.456;7.622;2023-06-26T03:59:12;16.58;;;7.57;;
15114;SDS011;7658;51.456;7.622;2023-06-26T04:01:38;19.00;;;9.00;;
15114;SDS011;7658;51.456;7.622;2023-06-26T04:04:03;9.00;;;7.75;;
15114;SDS011;7658;51.456;7.622;2023-06-26T04:06:29;14.40;;;7.82;;
15114;SDS011;7658;51.456;7.622;2023-06-26T04:08:58;13.68;;;8.27;;
15114;SDS011;7658;51.456;7.622;2023-06-26T04:11:24;11.85;;;7.70;;
15114;SDS011;7658;51.456;7.622;2023-06-26T04:13:50;12.50;;;7.90;;
15114;SDS011;7658;51.456;7.622;2023-06-26T04:16:16;12.27;;;7.35;;
15114;SDS011;7658;51.456;7.622;2023-06-26T04:18:42;11.82;;;8.52;;
15114;SDS011;7658;51.456;7.622;2023-06-26T04:21:08;14.20;;;8.18;;
15114;SDS011;7658;51.456;7.622;2023-06-26T04:23:36;11.68;;;8.35;;
15114;SDS011;7658;51.456;7.622;2023-06-26T04:26:03;13.40;;;7.72;;
15114;SDS011;7658;51.456;7.622;2023-06-26T04:28:30;10.40;;;7.78;;
15114;SDS011;7658;51.456;7.622;2023-06-26T04:31:00;10.50;;;7.63;;
15114;SDS011;7658;51.456;7.622;2023-06-26T04:33:29;10.20;;;7.78;;
15114;SDS011;7658;51.456;7.622;2023-06-26T04:35:55;11.98;;;7.53;;
15114;SDS011;7658;51.456;7.622;2023-06-26T04:38:20;13.00;;;7.47;;
15114;SDS011;7658;51.456;7.622;2023-06-26T04:40:47;9.77;;;6.88;;
15114;SDS011;7658;51.456;7.622;2023-06-26T04:43:13;8.65;;;7.10;;
15114;SDS011;7658;51.456;7.622;2023-06-26T04:45:39;12.00;;;7.30;;
15114;SDS011;7658;51.456;7.622;2023-06-26T04:48:05;9.75;;;7.80;;
15114;SDS011;7658;51.456;7.622;2023-06-26T04:50:32;9.80;;;7.30;;
15114;SDS011;7658;51.456;7.622;2023-06-26T04:52:58;11.00;;;7.40;;
15114;SDS011;7658;51.456;7.622;2023-06-26T04:55:24;9.65;;;7.13;;
15114;SDS011;7658;51.456;7.622;2023-06-26T04:57:50;10.15;;;7.30;;
15114;SDS011;7658;51.456;7.622;2023-06-26T05:00:16;8.93;;;6.88;;
15114;SDS011;7658;51.456;7.622;2023-06-26T05:02:43;13.00;;;7.40;;
15114;SDS011;7658;51.456;7.622;2023-06-26T05:05:09;8.27;;;6.40;;
15114;SDS011;7658;51.456;7.622;2023-06-26T05:07:35;12.55;;;8.15;;
15114;SDS011;7658;51.456;7.622;2023-06-26T05:10:01;12.80;;;7.53;;
15114;SDS011;7658;51.456;7.622;2023-06-26T05:12:27;9.63;;;7.25;;
15114;SDS011;7658;51.456;7.622;2023-06-26T05:14:53;10.05;;;6.85;;
15114;SDS011;7658;51.456;7.622;2023-06-26T05:17:18;12.05;;;6.97;;
15114;SDS011;7658;51.456;7.622;2023-06-26T05:19:44;11.30;;;7.25;;
15114;SDS011;7658;51.456;7.622;2023-06-26T05:22:10;9.57;;;7.13;;
15114;SDS011;7658;51.456;7.622;2023-06-26T05:24:42;9.50;;;6.45;;
15114;SDS011;7658;51.456;7.622;2023-06-26T05:27:11;10.52;;;6.88;;
15114;SDS011;7658;51.456;7.622;2023-06-26T05:29:44;9.55;;;6.88;;
15114;SDS011;7658;51.456;7.622;2023-06-26T05:32:10;10.52;;;6.80;;
15114;SDS011;7658;51.456;7.622;2023-06-26T05:34:37;12.43;;;7.57;;
15114;SDS011;7658;51.456;7.622;2023-06-26T05:37:05;11.25;;;7.30;;
15114;SDS011;7658;51.456;7.622;2023-06-26T05:39:32;11.48;;;6.97;;
15114;SDS011;7658;51.456;7.622;2023-06-26T05:41:57;10.43;;;7.68;;
15114;SDS011;7658;51.456;7.622;2023-06-26T05:44:23;12.10;;;7.93;;
15114;SDS011;7658;51.456;7.622;2023-06-26T05:46:49;11.30;;;7.45;;
15114;SDS011;7658;51.456;7.622;2023-06-26T05:49:15;11.38;;;7.10;;
15114;SDS011;7658;51.456;7.622;2023-06-26T05:51:41;11.70;;;7.55;;
15114;SDS011;7658;51.456;7.622;2023-06-26T05:54:07;14.23;;;7.85;;
15114;SDS011;7658;51.456;7.622;2023-06-26T05:56:34;11.35;;;7.35;;
15114;SDS011;7658;51.456;7.622;2023-06-26T05:59:00;13.77;;;8.25;;
15114;SDS011;7658;51.456;7.622;2023-06-26T06:01:27;11.00;;;8.13;;
15114;SDS011;7658;51.456;7.622;2023-06-26T06:03:53;9.13;;;7.43;;
15114;SDS011;7658;51.456;7.622;2023-06-26T06:06:19;13.05;;;8.57;;
15114;SDS011;7658;51.456;7.622;2023-06-26T06:08:44;13.73;;;8.38;;
15114;SDS011;7658;51.456;7.622;2023-06-26T06:11:10;12.52;;;8.38;;
15114;SDS011;7658;51.456;7.622;2023-06-26T06:13:36;12.10;;;8.73;;
15114;SDS011;7658;51.456;7.622;2023-06-26T06:16:01;13.10;;;9.05;;
15114;SDS011;7658;51.456;7.622;2023-06-26T06:18:27;11.55;;;8.88;;
15114;SDS011;7658;51.456;7.622;2023-06-26T06:20:53;10.32;;;7.82;;
15114;SDS011;7658;51.456;7.622;2023-06-26T06:23:19;15.70;;;8.57;;
15114;SDS011;7658;51.456;7.622;2023-06-26T06:25:44;13.93;;;8.07;;
15114;SDS011;7658;51.456;7.622;2023-06-26T06:28:10;13.07;;;8.35;;
15114;SDS011;7658;51.456;7.622;2023-06-26T06:30:36;15.77;;;9.57;;
15114;SDS011;7658;51.456;7.622;2023-06-26T06:33:02;12.18;;;8.50;;
15114;SDS011;7658;51.456;7.622;2023-06-26T06:35:28;12.52;;;8.43;;
15114;SDS011;7658;51.456;7.622;2023-06-26T06:37:53;12.73;;;8.32;;
15114;SDS011;7658;51.456;7.622;2023-06-26T06:40:19;13.07;;;8.07;;
15114;SDS011;7658;51.456;7.622;2023-06-26T06:42:47;12.80;;;7.10;;
15114;SDS011;7658;51.456;7.622;2023-06-26T06:45:13;11.75;;;8.02;;
15114;SDS011;7658;51.456;7.622;2023-06-26T06:47:39;14.82;;;8.95;;
15114;SDS011;7658;51.456;7.622;2023-06-26T06:50:05;11.50;;;7.43;;
15114;SDS011;7658;51.456;7.622;2023-06-26T06:52:35;12.85;;;8.25;;
15114;SDS011;7658;51.456;7.622;2023-06-26T06:55:05;11.43;;;7.30;;
15114;SDS011;7658;51.456;7.622;2023-06-26T06:57:33;11.95;;;7.57;;
15114;SDS011;7658;51.456;7.622;2023-06-26T07:00:07;12.55;;;7.70;;
15114;SDS011;7658;51.456;7.622;2023-06-26T07:02:35;12.35;;;7.30;;
15114;SDS011;7658;51.456;7.622;2023-06-26T07:05:02;10.65;;;7.60;;
15114;SDS011;7658;51.456;7.622;2023-06-26T07:07:29;11.10;;;7.05;;
15114;SDS011;7658;51.456;7.622;2023-06-26T07:09:57;13.02;;;7.28;;
15114;SDS011;7658;51.456;7.622;2023-06-26T07:12:27;9.70;;;6.95;;
15114;SDS011;7658;51.456;7.622;2023-06-26T07:14:54;11.48;;;6.38;;
15114;SDS011;7658;51.456;7.622;2023-06-26T07:17:21;11.45;;;7.07;;
15114;SDS011;7658;51.456;7.622;2023-06-26T07:19:47;14.15;;;7.07;;
15114;SDS011;7658;51.456;7.622;2023-06-26T07:22:13;10.70;;;6.60;;
15114;SDS011;7658;51.456;7.622;2023-06-26T07:24:39;14.90;;;6.78;;
15114;SDS011;7658;51.456;7.622;2023-06-26T07:27:05;10.00;;;6.70;;
15114;SDS011;7658;51.456;7.622;2023-06-26T07:29:31;12.65;;;7.45;;
15114;SDS011;7658;51.456;7.622;2023-06-26T07:31:56;13.07;;;6.95;;
15114;SDS011;7658;51.456;7.622;2023-06-26T07:34:22;12.38;;;6.82;;
15114;SDS011;7658;51.456;7.622;2023-06-26T07:36:48;9.15;;;6.70;;
15114;SDS011;7658;51.456;7.622;2023-06-26T07:39:14;12.90;;;6.82;;
15114;SDS011;7658;51.456;7.622;2023-06-26T07:41:39;12.75;;;7.13;;
15114;SDS011;7658;51.456;7.622;2023-06-26T07:44:05;11.27;;;7.75;;
15114;SDS011;7658;51.456;7.622;2023-06-26T07:46:31;13.52;;;7.80;;
15114;SDS011;7658;51.456;7.622;2023-06-26T07:48:56;16.02;;;8.45;;
15114;SDS011;7658;51.456;7.622;2023-06-26T07:51:22;10.35;;;7.75;;
15114;SDS011;7658;51.456;7.622;2023-06-26T07:53:49;12.82;;;7.18;;
15114;SDS011;7658;51.456;7.622;2023-06-26T07:56:14;13.70;;;7.82;;
15114;SDS011;7658;51.456;7.622;2023-06-26T07:58:40;13.63;;;7.63;;
15114;SDS011;7658;51.456;7.622;2023-06-26T08:01:06;15.20;;;7.38;;
15114;SDS011;7658;51.456;7.622;2023-06-26T08:03:32;14.20;;;6.93;;
15114;SDS011;7658;51.456;7.622;2023-06-26T08:05:57;13.93;;;7.00;;
15114;SDS011;7658;51.456;7.622;2023-06-26T08:08:23;12.98;;;7.05;;
15114;SDS011;7658;51.456;7.622;2023-06-26T08:10:49;16.00;;;7.50;;
15114;SDS011;7658;51.456;7.622;2023-06-26T08:13:15;15.32;;;7.50;;
15114;SDS011;7658;51.456;7.622;2023-06-26T08:15:40;12.18;;;8.18;;
15114;SDS011;7658;51.456;7.622;2023-06-26T08:18:06;16.63;;;7.25;;
15114;SDS011;7658;51.456;7.622;2023-06-26T08:20:32;14.43;;;6.70;;
15114;SDS011;7658;51.456;7.622;2023-06-26T08:22:57;14.77;;;6.85;;
15114;SDS011;7658;51.456;7.622;2023-06-26T08:25:23;16.55;;;7.30;;
15114;SDS011;7658;51.456;7.622;2023-06-26T08:27:49;13.50;;;7.38;;
15114;SDS011;7658;51.456;7.622;2023-06-26T08:30:17;15.00;;;7.53;;
15114;SDS011;7658;51.456;7.622;2023-06-26T08:32:43;13.65;;;8.45;;
15114;SDS011;7658;51.456;7.622;2023-06-26T08:35:09;11.23;;;8.10;;
15114;SDS011;7658;51.456;7.622;2023-06-26T08:37:35;12.10;;;8.30;;
15114;SDS011;7658;51.456;7.622;2023-06-26T08:40:01;16.10;;;8.23;;
15114;SDS011;7658;51.456;7.622;2023-06-26T08:42:27;15.65;;;8.90;;
15114;SDS011;7658;51.456;7.622;2023-06-26T08:44:53;14.93;;;8.90;;
15114;SDS011;7658;51.456;7.622;2023-06-26T08:47:19;13.70;;;8.10;;
15114;SDS011;7658;51.456;7.622;2023-06-26T08:52:30;17.23;;;10.07;;
15114;SDS011;7658;51.456;7.622;2023-06-26T08:55:02;16.45;;;10.80;;
15114;SDS011;7658;51.456;7.622;2023-06-26T08:57:31;15.57;;;9.43;;
15114;SDS011;7658;51.456;7.622;2023-06-26T09:00:00;16.65;;;10.85;;
15114;SDS011;7658;51.456;7.622;2023-06-26T09:02:27;17.15;;;10.93;;
15114;SDS011;7658;51.456;7.622;2023-06-26T09:04:53;14.25;;;10.38;;
15114;SDS011;7658;51.456;7.622;2023-06-26T09:07:19;22.67;;;12.95;;
15114;SDS011;7658;51.456;7.622;2023-06-26T09:09:45;17.88;;;11.55;;
15114;SDS011;7658;51.456;7.622;2023-06-26T09:12:11;18.02;;;11.52;;
15114;SDS011;7658;51.456;7.622;2023-06-26T09:14:38;15.65;;;11.02;;
15114;SDS011;7658;51.456;7.622;2023-06-26T09:17:04;16.65;;;10.15;;
15114;SDS011;7658;51.456;7.622;2023-06-26T09:19:30;18.98;;;11.60;;
15114;SDS011;7658;51.456;7.622;2023-06-26T09:21:56;19.85;;;10.07;;
15114;SDS011;7658;51.456;7.622;2023-06-26T09:24:22;18.48;;;10.98;;
15114;SDS011;7658;51.456;7.622;2023-06-26T09:26:48;16.42;;;10.07;;
15114;SDS011;7658;51.456;7.622;2023-06-26T09:29:16;17.05;;;11.32;;
15114;SDS011;7658;51.456;7.622;2023-06-26T09:31:43;18.50;;;11.70;;
15114;SDS011;7658;51.456;7.622;2023-06-26T09:34:09;19.25;;;9.70;;
15114;SDS011;7658;51.456;7.622;2023-06-26T09:36:35;13.95;;;8.98;;
15114;SDS011;7658;51.456;7.622;2023-06-26T09:39:02;15.90;;;9.15;;
15114;SDS011;7658;51.456;7.622;2023-06-26T09:41:29;17.25;;;9.00;;
15114;SDS011;7658;51.456;7.622;2023-06-26T09:43:57;16.02;;;10.18;;
15114;SDS011;7658;51.456;7.622;2023-06-26T09:46:30;16.60;;;10.15;;
15114;SDS011;7658;51.456;7.622;2023-06-26T09:49:06;22.05;;;10.73;;
15114;SDS011;7658;51.456;7.622;2023-06-26T09:51:34;17.30;;;10.20;;
15114;SDS011;7658;51.456;7.622;2023-06-26T09:54:01;11.55;;;9.32;;
15114;SDS011;7658;51.456;7.622;2023-06-26T09:56:28;14.48;;;9.48;;
15114;SDS011;7658;51.456;7.622;2023-06-26T09:58:58;15.20;;;9.77;;
15114;SDS011;7658;51.456;7.622;2023-06-26T10:01:26;19.92;;;9.82;;
15114;SDS011;7658;51.456;7.622;2023-06-26T10:03:52;15.07;;;8.90;;
15114;SDS011;7658;51.456;7.622;2023-06-26T10:06:19;16.02;;;9.10;;
15114;SDS011;7658;51.456;7.622;2023-06-26T10:08:51;18.33;;;9.18;;
15114;SDS011;7658;51.456;7.622;2023-06-26T10:11:19;16.27;;;8.93;;
15114;SDS011;7658;51.456;7.622;2023-06-26T10:13:47;14.35;;;8.68;;
15114;SDS011;7658;51.456;7.622;2023-06-26T10:16:22;14.65;;;8.85;;
15114;SDS011;7658;51.456;7.622;2023-06-26T10:18:56;16.27;;;8.57;;
15114;SDS011;7658;51.456;7.622;2023-06-26T10:21:27;14.35;;;8.88;;
15114;SDS011;7658;51.456;7.622;2023-06-26T10:23:56;13.32;;;8.50;;
15114;SDS011;7658;51.456;7.622;2023-06-26T10:26:23;14.65;;;8.60;;
15114;SDS011;7658;51.456;7.622;2023-06-26T10:28:52;14.75;;;8.80;;
15114;SDS011;7658;51.456;7.622;2023-06-26T10:31:20;18.95;;;9.07;;
15114;SDS011;7658;51.456;7.622;2023-06-26T10:33:48;16.30;;;8.98;;
15114;SDS011;7658;51.456;7.622;2023-06-26T10:36:18;11.02;;;8.02;;
15114;SDS011;7658;51.456;7.622;2023-06-26T10:38:50;13.13;;;7.15;;
15114;SDS011;7658;51.456;7.622;2023-06-26T10:41:45;13.75;;;7.35;;
15114;SDS011;7658;51.456;7.622;2023-06-26T10:44:11;14.73;;;6.70;;
15114;SDS011;7658;51.456;7.622;2023-06-26T10:46:51;14.75;;;7.18;;
15114;SDS011;7658;51.456;7.622;2023-06-26T10:49:18;12.98;;;6.80;;
15114;SDS011;7658;51.456;7.622;2023-06-26T10:51:49;14.65;;;6.40;;
15114;SDS011;7658;51.456;7.622;2023-06-26T10:54:16;11.93;;;6.05;;
15114;SDS011;7658;51.456;7.622;2023-06-26T10:56:44;11.82;;;6.88;;
15114;SDS011;7658;51.456;7.622;2023-06-26T10:59:19;12.40;;;6.00;;
15114;SDS011;7658;51.456;7.622;2023-06-26T11:01:46;11.02;;;5.93;;
15114;SDS011;7658;51.456;7.622;2023-06-26T11:04:39;10.68;;;4.93;;
15114;SDS011;7658;51.456;7.622;2023-06-26T11:09:55;8.15;;;5.53;;
15114;SDS011;7658;51.456;7.622;2023-06-26T11:12:34;10.77;;;5.57;;
15114;SDS011;7658;51.456;7.622;2023-06-26T11:15:13;13.20;;;6.53;;
15114;SDS011;7658;51.456;7.622;2023-06-26T11:17:44;11.93;;;6.60;;
15114;SDS011;7658;51.456;7.622;2023-06-26T11:20:11;11.43;;;5.30;;
15114;SDS011;7658;51.456;7.622;2023-06-26T11:22:38;12.65;;;5.55;;
15114;SDS011;7658;51.456;7.622;2023-06-26T11:25:06;11.63;;;4.82;;
15114;SDS011;7658;51.456;7.622;2023-06-26T11:27:39;12.30;;;4.30;;
15114;SDS011;7658;51.456;7.622;2023-06-26T11:30:06;7.75;;;4.43;;
15114;SDS011;7658;51.456;7.622;2023-06-26T11:32:34;10.07;;;4.30;;
15114;SDS011;7658;51.456;7.622;2023-06-26T11:35:00;8.60;;;4.20;;
15114;SDS011;7658;51.456;7.622;2023-06-26T11:37:26;10.40;;;4.85;;
15114;SDS011;7658;51.456;7.622;2023-06-26T11:39:51;8.82;;;4.63;;
15114;SDS011;7658;51.456;7.622;2023-06-26T11:42:18;13.30;;;4.50;;
15114;SDS011;7658;51.456;7.622;2023-06-26T11:44:45;8.25;;;4.78;;
15114;SDS011;7658;51.456;7.622;2023-06-26T11:49:44;16.00;;;4.65;;
15114;SDS011;7658;51.456;7.622;2023-06-26T11:52:13;13.38;;;4.82;;
15114;SDS011;7658;51.456;7.622;2023-06-26T11:54:40;10.80;;;4.32;;
15114;SDS011;7658;51.456;7.622;2023-06-26T11:57:07;11.48;;;3.75;;
15114;SDS011;7658;51.456;7.622;2023-06-26T11:59:36;15.10;;;4.57;;
15114;SDS011;7658;51.456;7.622;2023-06-26T12:02:07;11.30;;;4.22;;
15114;SDS011;7658;51.456;7.622;2023-06-26T12:04:43;11.43;;;4.70;;
15114;SDS011;7658;51.456;7.622;2023-06-26T12:07:09;10.27;;;4.80;;
15114;SDS011;7658;51.456;7.622;2023-06-26T12:09:40;12.05;;;5.03;;
15114;SDS011;7658;51.456;7.622;2023-06-26T12:12:11;11.20;;;4.43;;
15114;SDS011;7658;51.456;7.622;2023-06-26T12:14:38;8.73;;;4.35;;
15114;SDS011;7658;51.456;7.622;2023-06-26T12:17:12;9.70;;;4.05;;
15114;SDS011;7658;51.456;7.622;2023-06-26T12:19:42;8.32;;;4.40;;
15114;SDS011;7658;51.456;7.622;2023-06-26T12:22:09;5.80;;;3.50;;
15114;SDS011;7658;51.456;7.622;2023-06-26T12:24:36;10.27;;;4.32;;
15114;SDS011;7658;51.456;7.622;2023-06-26T12:27:08;7.35;;;3.47;;
15114;SDS011;7658;51.456;7.622;2023-06-26T12:29:35;5.75;;;4.10;;
15114;SDS011;7658;51.456;7.622;2023-06-26T12:32:02;6.28;;;3.15;;
15114;SDS011;7658;51.456;7.622;2023-06-26T12:34:31;9.40;;;3.33;;
15114;SDS011;7658;51.456;7.622;2023-06-26T12:37:02;7.10;;;3.17;;
15114;SDS011;7658;51.456;7.622;2023-06-26T12:39:29;7.13;;;3.08;;
15114;SDS011;7658;51.456;7.622;2023-06-26T12:42:13;6.43;;;3.30;;
15114;SDS011;7658;51.456;7.622;2023-06-26T12:44:47;4.78;;;2.80;;
15114;SDS011;7658;51.456;7.622;2023-06-26T12:47:14;6.88;;;3.33;;
15114;SDS011;7658;51.456;7.622;2023-06-26T12:49:49;5.72;;;3.00;;
15114;SDS011;7658;51.456;7.622;2023-06-26T12:52:16;4.97;;;2.45;;
15114;SDS011;7658;51.456;7.622;2023-06-26T12:54:46;9.40;;;2.90;;
15114;SDS011;7658;51.456;7.622;2023-06-26T12:57:13;3.70;;;2.58;;
15114;SDS011;7658;51.456;7.622;2023-06-26T12:59:42;5.93;;;2.78;;
15114;SDS011;7658;51.456;7.622;2023-06-26T13:02:08;5.45;;;2.90;;
15114;SDS011;7658;51.456;7.622;2023-06-26T13:04:36;8.30;;;2.78;;
15114;SDS011;7658;51.456;7.622;2023-06-26T13:07:04;5.63;;;2.60;;
15114;SDS011;7658;51.456;7.622;2023-06-26T13:09:32;4.50;;;2.08;;
15114;SDS011;7658;51.456;7.622;2023-06-26T13:11:58;5.00;;;2.45;;
15114;SDS011;7658;51.456;7.622;2023-06-26T13:14:24;6.13;;;2.50;;
15114;SDS011;7658;51.456;7.622;2023-06-26T13:16:51;5.32;;;2.70;;
15114;SDS011;7658;51.456;7.622;2023-06-26T13:19:17;5.00;;;2.28;;
15114;SDS011;7658;51.456;7.622;2023-06-26T13:21:42;4.97;;;2.20;;
15114;SDS011;7658;51.456;7.622;2023-06-26T13:24:08;6.55;;;2.10;;
15114;SDS011;7658;51.456;7.622;2023-06-26T13:26:34;2.95;;;1.77;;
15114;SDS011;7658;51.456;7.622;2023-06-26T13:29:01;5.07;;;2.22;;
15114;SDS011;7658;51.456;7.622;2023-06-26T13:31:26;4.75;;;1.90;;
15114;SDS011;7658;51.456;7.622;2023-06-26T13:33:52;6.40;;;2.20;;
15114;SDS011;7658;51.456;7.622;2023-06-26T13:36:19;6.00;;;1.98;;
15114;SDS011;7658;51.456;7.622;2023-06-26T13:38:46;10.70;;;2.40;;
15114;SDS011;7658;51.456;7.622;2023-06-26T13:41:14;7.35;;;2.13;;
15114;SDS011;7658;51.456;7.622;2023-06-26T13:43:40;2.58;;;1.70;;
15114;SDS011;7658;51.456;7.622;2023-06-26T13:46:05;7.35;;;2.08;;
15114;SDS011;7658;51.456;7.622;2023-06-26T13:48:31;3.08;;;1.75;;
15114;SDS011;7658;51.456;7.622;2023-06-26T13:50:58;4.00;;;2.00;;
15114;SDS011;7658;51.456;7.622;2023-06-26T13:53:24;6.65;;;2.25;;
15114;SDS011;7658;51.456;7.622;2023-06-26T13:55:50;6.97;;;2.22;;
15114;SDS011;7658;51.456;7.622;2023-06-26T13:58:16;5.45;;;1.92;;
15114;SDS011;7658;51.456;7.622;2023-06-26T14:00:41;9.23;;;2.25;;
15114;SDS011;7658;51.456;7.622;2023-06-26T14:03:09;3.72;;;1.92;;
15114;SDS011;7658;51.456;7.622;2023-06-26T14:05:36;2.92;;;1.67;;
15114;SDS011;7658;51.456;7.622;2023-06-26T14:08:06;6.47;;;1.75;;
15114;SDS011;7658;51.456;7.622;2023-06-26T14:10:33;8.23;;;2.00;;
15114;SDS011;7658;51.456;7.622;2023-06-26T14:12:59;8.05;;;2.28;;
15114;SDS011;7658;51.456;7.622;2023-06-26T14:15:25;5.32;;;2.00;;
15114;SDS011;7658;51.456;7.622;2023-06-26T14:17:51;4.13;;;1.73;;
15114;SDS011;7658;51.456;7.622;2023-06-26T14:20:17;4.03;;;1.58;;
15114;SDS011;7658;51.456;7.622;2023-06-26T14:22:44;3.92;;;2.00;;
15114;SDS011;7658;51.456;7.622;2023-06-26T14:25:10;5.95;;;1.92;;
15114;SDS011;7658;51.456;7.622;2023-06-26T14:27:37;4.38;;;1.90;;
15114;SDS011;7658;51.456;7.622;2023-06-26T14:30:03;5.70;;;2.33;;
15114;SDS011;7658;51.456;7.622;2023-06-26T14:32:30;2.97;;;1.70;;
15114;SDS011;7658;51.456;7.622;2023-06-26T14:34:56;3.58;;;1.90;;
15114;SDS011;7658;51.456;7.622;2023-06-26T14:37:22;6.13;;;2.20;;
15114;SDS011;7658;51.456;7.622;2023-06-26T14:39:49;4.97;;;1.80;;
15114;SDS011;7658;51.456;7.622;2023-06-26T14:42:15;5.00;;;1.88;;
15114;SDS011;7658;51.456;7.622;2023-06-26T14:44:40;2.33;;;1.63;;
15114;SDS011;7658;51.456;7.622;2023-06-26T14:47:06;5.43;;;1.88;;
15114;SDS011;7658;51.456;7.622;2023-06-26T14:49:32;4.18;;;1.70;;
15114;SDS011;7658;51.456;7.622;2023-06-26T14:51:58;3.38;;;1.73;;
15114;SDS011;7658;51.456;7.622;2023-06-26T14:54:23;1.60;;;1.50;;
15114;SDS011;7658;51.456;7.622;2023-06-26T14:56:49;4.07;;;1.83;;
15114;SDS011;7658;51.456;7.622;2023-06-26T14:59:15;4.57;;;1.80;;
15114;SDS011;7658;51.456;7.622;2023-06-26T15:01:41;2.58;;;1.58;;
15114;SDS011;7658;51.456;7.622;2023-06-26T15:04:07;4.13;;;1.80;;
15114;SDS011;7658;51.456;7.622;2023-06-26T15:06:33;5.63;;;2.33;;